Time;durP1;ratioP1;P1;durP2;ratioP2;P2;SDS_P1;SDS_P2;PMS_P1;PMS_P2;Temp;Humidity;BMP_temperature;BMP_pressure;BME280_temperature;BME280_humidity;BME280_pressure;Samples;Min_cycle;Max_cycle;Signal;HPM_P1;HPM_P2
2022/05/26 00:02:27;;;;;;;4.00;1.30;;;14.90;99.90;;;;;;5072995;28;20295;-71
2022/05/26 00:04:54;;;;;;;3.42;1.00;;;14.80;99.90;;;;;;5072844;28;20202;-71
2022/05/26 00:07:21;;;;;;;2.40;1.15;;;14.80;99.90;;;;;;5072703;28;20263;-72
2022/05/26 00:09:48;;;;;;;1.67;1.02;;;14.70;99.90;;;;;;5072270;28;20206;-72
2022/05/26 00:12:16;;;;;;;1.38;0.95;;;14.60;99.90;;;;;;5072147;28;20683;-72
2022/05/26 00:14:43;;;;;;;1.63;1.23;;;14.60;99.90;;;;;;5072479;28;20213;-70
2022/05/26 00:17:10;;;;;;;1.63;0.80;;;14.60;99.90;;;;;;5072456;28;20257;-72
2022/05/26 00:19:39;;;;;;;7.53;3.08;;;14.50;99.90;;;;;;5072145;28;20205;-72
2022/05/26 00:22:06;;;;;;;3.55;1.13;;;14.50;99.90;;;;;;5072651;28;20230;-73
2022/05/26 00:24:32;;;;;;;6.53;1.80;;;14.50;99.90;;;;;;5072356;28;20199;-72
2022/05/26 00:26:59;;;;;;;9.73;2.22;;;14.50;99.90;;;;;;5072635;28;20264;-72
2022/05/26 00:29:26;;;;;;;3.10;1.23;;;14.50;99.90;;;;;;5072564;28;20736;-72
2022/05/26 00:31:53;;;;;;;3.40;1.40;;;14.40;99.90;;;;;;5071797;28;20676;-72
2022/05/26 00:34:20;;;;;;;7.20;1.58;;;14.50;99.90;;;;;;5072245;28;20264;-72
2022/05/26 00:36:49;;;;;;;8.75;1.30;;;14.40;99.90;;;;;;5071844;28;20689;-72
2022/05/26 00:39:18;;;;;;;1.25;1.15;;;14.40;99.90;;;;;;5072455;28;20263;-73
2022/05/26 00:41:48;;;;;;;2.92;0.88;;;14.40;99.90;;;;;;5071912;28;20225;-72
2022/05/26 00:44:16;;;;;;;1.23;0.98;;;14.40;99.90;;;;;;5072152;28;20210;-70
2022/05/26 00:46:51;;;;;;;2.63;1.35;;;14.30;99.90;;;;;;5071634;28;20210;-72
2022/05/26 00:49:36;;;;;;;4.00;1.90;;;14.30;99.90;;;;;;5071964;28;20650;-72
2022/05/26 00:52:06;;;;;;;5.30;1.60;;;14.30;99.90;;;;;;5071753;28;20735;-72
2022/05/26 00:54:34;;;;;;;1.52;1.35;;;14.20;99.90;;;;;;5071410;28;20247;-71
2022/05/26 00:57:04;;;;;;;2.60;1.70;;;14.20;99.90;;;;;;5071937;28;20202;-72
2022/05/26 00:59:41;;;;;;;1.20;1.10;;;14.20;99.90;;;;;;5072136;28;20252;-70
2022/05/26 01:02:09;;;;;;;2.05;1.20;;;14.10;99.90;;;;;;5071461;28;20291;-72
2022/05/26 01:04:40;;;;;;;2.50;1.40;;;14.10;99.90;;;;;;5071487;28;20233;-71
2022/05/26 01:07:13;;;;;;;10.57;3.33;;;14.10;99.90;;;;;;5071433;28;20206;-71
2022/05/26 01:09:40;;;;;;;3.88;1.30;;;14.20;99.90;;;;;;5071035;28;20206;-71
2022/05/26 01:12:08;;;;;;;4.75;1.38;;;14.20;99.90;;;;;;5071435;28;20287;-74
2022/05/26 01:14:38;;;;;;;1.27;1.00;;;14.30;99.90;;;;;;5070856;28;20210;-73
2022/05/26 01:17:17;;;;;;;1.83;1.35;;;14.10;99.90;;;;;;5071314;28;20210;-73
2022/05/26 01:20:20;;;;;;;4.28;1.80;;;14.20;99.90;;;;;;5070961;28;20205;-72
2022/05/26 01:23:10;;;;;;;1.80;1.05;;;14.10;99.90;;;;;;5070595;28;20363;-71
2022/05/26 01:25:59;;;;;;;1.85;1.20;;;14.30;99.90;;;;;;5070895;28;20620;-72
2022/05/26 01:28:45;;;;;;;3.78;1.48;;;14.20;99.90;;;;;;5071576;28;20206;-74
2022/05/26 01:31:29;;;;;;;1.95;1.05;;;14.10;99.90;;;;;;5071180;28;20206;-72
2022/05/26 01:34:04;;;;;;;2.95;1.20;;;14.10;99.90;;;;;;5071391;28;20264;-74
2022/05/26 01:36:39;;;;;;;3.35;1.30;;;14.10;99.90;;;;;;5071046;28;20251;-69
2022/05/26 01:39:17;;;;;;;4.13;1.40;;;14.20;99.90;;;;;;5071147;28;20205;-73
2022/05/26 01:42:09;;;;;;;3.45;1.65;;;14.10;99.90;;;;;;5070366;28;20210;-74
2022/05/26 01:44:45;;;;;;;1.40;0.90;;;14.00;99.90;;;;;;5070113;28;20212;-75
2022/05/26 01:47:21;;;;;;;2.33;1.33;;;13.80;99.90;;;;;;5071133;28;20201;-76
2022/05/26 01:49:54;;;;;;;2.70;1.40;;;14.00;99.90;;;;;;5070724;28;20634;-76
2022/05/26 01:52:30;;;;;;;4.25;1.13;;;13.90;99.90;;;;;;5071076;28;20240;-74
2022/05/26 01:55:03;;;;;;;4.68;1.55;;;13.80;99.90;;;;;;5070993;28;20243;-74
2022/05/26 01:57:37;;;;;;;1.00;0.90;;;13.90;99.90;;;;;;5070924;28;20258;-70
2022/05/26 02:00:07;;;;;;;2.67;1.20;;;13.90;99.90;;;;;;5071228;28;20197;-74
2022/05/26 02:02:40;;;;;;;1.45;1.13;;;13.80;99.90;;;;;;5070425;28;20230;-72
2022/05/26 02:05:12;;;;;;;2.05;1.00;;;13.80;99.90;;;;;;5070790;28;20608;-74
2022/05/26 02:07:43;;;;;;;1.73;0.90;;;13.80;99.90;;;;;;5070187;28;20205;-74
2022/05/26 02:10:16;;;;;;;1.73;1.33;;;13.90;99.90;;;;;;5070901;28;20279;-73
2022/05/26 02:12:47;;;;;;;3.47;1.98;;;13.90;99.90;;;;;;5070194;28;20263;-75
2022/05/26 02:15:19;;;;;;;2.35;1.00;;;13.80;99.90;;;;;;5070551;28;20730;-73
2022/05/26 02:17:51;;;;;;;4.38;1.20;;;13.90;99.90;;;;;;5070215;28;20251;-72
2022/05/26 02:20:24;;;;;;;4.05;1.25;;;14.00;99.90;;;;;;5070684;28;20347;-74
2022/05/26 02:22:57;;;;;;;2.60;1.17;;;14.20;99.90;;;;;;5070161;28;20705;-72
2022/05/26 02:25:28;;;;;;;3.30;1.05;;;14.20;99.90;;;;;;5071024;28;20205;-68
2022/05/26 02:27:57;;;;;;;2.47;1.13;;;14.10;99.90;;;;;;5070469;28;20205;-72
2022/05/26 02:30:27;;;;;;;1.77;1.23;;;14.00;99.90;;;;;;5071000;28;20727;-73
2022/05/26 02:32:56;;;;;;;0.93;0.93;;;13.90;99.90;;;;;;5070578;28;20264;-72
2022/05/26 02:35:25;;;;;;;2.38;1.05;;;14.00;99.90;;;;;;5072358;28;20579;-73
2022/05/26 02:37:56;;;;;;;2.47;1.30;;;13.90;99.90;;;;;;5074069;28;20275;-69
2022/05/26 02:40:23;;;;;;;2.88;2.08;;;13.90;99.90;;;;;;5074277;28;20202;-73
2022/05/26 02:42:54;;;;;;;1.98;1.10;;;13.90;99.90;;;;;;5073733;28;20303;-72
2022/05/26 02:45:28;;;;;;;1.85;0.90;;;13.80;99.90;;;;;;5074209;28;20213;-70
2022/05/26 02:48:07;;;;;;;2.55;0.90;;;13.90;99.90;;;;;;5074111;28;20202;-73
2022/05/26 02:50:46;;;;;;;3.35;1.35;;;13.80;99.90;;;;;;5073892;28;20600;-72
2022/05/26 02:53:20;;;;;;;4.32;1.10;;;13.70;99.90;;;;;;5074072;28;20198;-73
2022/05/26 02:55:58;;;;;;;5.47;1.80;;;13.70;99.90;;;;;;5073631;28;20293;-72
2022/05/26 02:58:37;;;;;;;2.92;1.88;;;13.50;99.90;;;;;;5066860;28;20219;-68
2022/05/26 03:01:11;;;;;;;2.40;1.27;;;13.40;99.90;;;;;;5054091;28;20280;-71
2022/05/26 03:03:45;;;;;;;2.10;1.90;;;13.30;99.90;;;;;;5053498;28;20284;-71
2022/05/26 03:06:15;;;;;;;2.15;1.20;;;13.30;99.90;;;;;;5053877;28;20198;-72
2022/05/26 03:08:44;;;;;;;2.08;1.10;;;13.20;99.90;;;;;;5053295;28;20211;-73
2022/05/26 03:11:14;;;;;;;1.75;1.35;;;13.30;99.90;;;;;;5053932;28;20276;-73
2022/05/26 03:13:41;;;;;;;7.20;1.23;;;13.20;99.90;;;;;;5053391;28;20728;-73
2022/05/26 03:16:08;;;;;;;1.95;1.40;;;13.30;99.90;;;;;;5053998;28;20199;-71
2022/05/26 03:18:36;;;;;;;2.80;1.45;;;13.30;99.90;;;;;;5053455;28;20198;-73
2022/05/26 03:21:06;;;;;;;1.83;1.50;;;13.20;99.90;;;;;;5053721;28;20206;-71
2022/05/26 03:23:33;;;;;;;3.08;1.40;;;13.30;99.90;;;;;;5053109;28;20235;-71
2022/05/26 03:26:01;;;;;;;3.95;1.55;;;13.30;99.90;;;;;;5053355;28;20207;-71
2022/05/26 03:28:30;;;;;;;2.78;1.77;;;13.10;99.90;;;;;;5053734;28;20615;-71
2022/05/26 03:30:57;;;;;;;5.10;1.48;;;13.20;99.90;;;;;;5053881;28;20203;-70
2022/05/26 03:33:25;;;;;;;2.90;1.42;;;13.20;99.90;;;;;;5053828;28;20203;-71
2022/05/26 03:41:25;;;;;;;3.70;1.45;;;13.20;99.90;;;;;;5053679;28;20214;-70
2022/05/26 03:43:57;;;;;;;3.50;1.25;;;13.30;99.90;;;;;;5052537;28;20291;-71
2022/05/26 03:46:25;;;;;;;3.85;1.10;;;13.30;99.90;;;;;;5052543;28;20207;-71
2022/05/26 03:48:52;;;;;;;4.10;1.50;;;13.20;99.90;;;;;;5053063;28;20210;-71
2022/05/26 03:51:19;;;;;;;4.50;3.47;;;13.40;99.90;;;;;;5053264;28;20207;-72
2022/05/26 03:53:48;;;;;;;1.95;1.38;;;13.50;99.90;;;;;;5052781;28;20268;-72
2022/05/26 03:56:15;;;;;;;4.28;1.30;;;13.40;99.90;;;;;;5052876;28;20207;-70
2022/05/26 03:58:41;;;;;;;1.00;0.90;;;13.60;99.90;;;;;;5052519;28;20203;-71
2022/05/26 04:01:09;;;;;;;1.23;0.95;;;13.60;1.00;;;;;;5052899;28;20211;-71
2022/05/26 04:03:37;;;;;;;10.38;2.08;;;13.40;99.90;;;;;;5052695;28;20313;-71
2022/05/26 04:06:04;;;;;;;2.08;1.00;;;13.90;99.90;;;;;;5053017;28;20203;-71
2022/05/26 04:08:31;;;;;;;5.38;2.25;;;13.50;99.90;;;;;;5052397;28;20729;-71
2022/05/26 04:11:00;;;;;;;2.28;1.10;;;13.40;99.90;;;;;;5052902;28;20243;-71
2022/05/26 04:13:29;;;;;;;5.88;1.83;;;13.30;99.90;;;;;;5052923;28;20280;-70
2022/05/26 04:15:56;;;;;;;5.22;1.30;;;13.40;99.90;;;;;;5052922;28;20203;-73
2022/05/26 04:18:24;;;;;;;4.45;1.30;;;13.50;99.90;;;;;;5053027;28;20203;-72
2022/05/26 04:20:50;;;;;;;2.80;1.60;;;13.30;99.90;;;;;;5052127;28;20615;-75
2022/05/26 04:23:17;;;;;;;2.20;1.30;;;13.30;99.90;;;;;;5052247;28;20239;-72
2022/05/26 04:25:44;;;;;;;2.25;1.20;;;13.30;99.90;;;;;;5052245;28;20268;-72
2022/05/26 04:28:13;;;;;;;2.65;1.10;;;13.30;99.90;;;;;;5052303;28;20253;-71
2022/05/26 04:30:40;;;;;;;2.72;1.10;;;13.10;99.90;;;;;;5052241;28;20207;-71
2022/05/26 04:33:07;;;;;;;2.45;1.83;;;13.10;99.90;;;;;;5052543;28;20203;-71
2022/05/26 04:35:34;;;;;;;5.18;1.60;;;13.30;99.90;;;;;;5052121;28;20207;-71
2022/05/26 04:38:00;;;;;;;2.97;1.38;;;13.30;99.90;;;;;;5052136;28;20264;-71
2022/05/26 04:40:28;;;;;;;2.40;1.10;;;13.40;99.90;;;;;;5052435;28;20211;-71
2022/05/26 04:42:54;;;;;;;2.95;1.67;;;13.40;99.90;;;;;;5052168;28;20235;-71
2022/05/26 04:45:23;;;;;;;4.45;1.35;;;13.30;99.90;;;;;;5051947;28;20257;-70
2022/05/26 04:47:50;;;;;;;2.47;1.10;;;13.40;99.90;;;;;;5051663;28;20680;-71
2022/05/26 04:50:17;;;;;;;1.88;1.00;;;13.40;99.90;;;;;;5051978;28;20722;-70
2022/05/26 04:52:44;;;;;;;5.38;1.55;;;13.60;99.90;;;;;;5051433;28;20269;-71
2022/05/26 04:55:13;;;;;;;5.22;1.27;;;13.60;99.90;;;;;;5051689;28;20202;-70
2022/05/26 04:57:40;;;;;;;6.40;1.65;;;13.70;99.90;;;;;;5051262;28;20249;-71
2022/05/26 05:00:10;;;;;;;2.38;2.17;;;13.70;99.90;;;;;;5051697;28;20206;-71
2022/05/26 05:02:39;;;;;;;4.45;1.38;;;13.60;99.90;;;;;;5050866;28;20285;-70
2022/05/26 05:05:07;;;;;;;1.10;0.95;;;13.70;99.90;;;;;;5051721;28;20202;-70
2022/05/26 05:07:34;;;;;;;5.82;1.17;;;13.90;99.90;;;;;;5050912;28;20272;-70
2022/05/26 05:10:01;;;;;;;6.15;1.27;;;13.90;99.90;;;;;;5051886;28;20207;-70
2022/05/26 05:12:28;;;;;;;2.72;1.48;;;13.80;99.90;;;;;;5052124;28;20268;-70
2022/05/26 05:14:56;;;;;;;3.15;0.93;;;13.90;99.90;;;;;;5051597;28;20206;-70
2022/05/26 05:17:25;;;;;;;5.43;1.17;;;14.10;99.90;;;;;;5051889;28;20735;-69
2022/05/26 05:19:53;;;;;;;1.20;1.10;;;14.00;99.90;;;;;;5051017;28;20663;-71
2022/05/26 05:22:25;;;;;;;9.55;2.55;;;13.90;99.90;;;;;;5051273;28;20610;-71
2022/05/26 05:24:56;;;;;;;1.90;1.02;;;14.00;99.90;;;;;;5051072;28;20296;-73
2022/05/26 05:27:27;;;;;;;4.78;1.63;;;14.10;99.90;;;;;;5051195;28;20737;-72
2022/05/26 05:29:58;;;;;;;1.85;1.27;;;14.10;99.90;;;;;;5051147;28;20209;-69
2022/05/26 05:32:29;;;;;;;2.25;1.20;;;13.50;99.90;;;;;;5051511;28;20207;-70
2022/05/26 05:35:03;;;;;;;5.65;1.83;;;13.90;99.90;;;;;;5050988;28;20209;-72
2022/05/26 05:37:31;;;;;;;4.45;1.77;;;14.20;99.90;;;;;;5050930;28;20203;-72
2022/05/26 05:39:59;;;;;;;4.95;2.25;;;14.20;99.90;;;;;;5051222;28;20253;-71
2022/05/26 05:42:27;;;;;;;5.40;1.55;;;14.90;1.00;;;;;;5051286;28;20256;-72
2022/05/26 05:44:54;;;;;;;5.55;1.60;;;13.60;99.90;;;;;;5050977;28;20285;-72
2022/05/26 05:47:21;;;;;;;2.47;1.00;;;14.10;99.90;;;;;;5050951;28;20674;-72
2022/05/26 05:49:49;;;;;;;1.30;1.10;;;14.00;99.90;;;;;;5050696;28;20199;-72
2022/05/26 05:52:22;;;;;;;4.95;2.15;;;13.90;99.90;;;;;;5050620;28;20294;-73
2022/05/26 05:54:49;;;;;;;4.32;1.50;;;13.90;99.90;;;;;;5050430;28;20674;-73
2022/05/26 05:57:17;;;;;;;3.38;1.48;;;13.90;99.90;;;;;;5050926;28;20225;-69
2022/05/26 05:59:44;;;;;;;3.30;1.63;;;14.00;99.90;;;;;;5050517;28;20199;-73
2022/05/26 06:02:11;;;;;;;2.35;1.27;;;14.00;99.90;;;;;;5050792;28;20244;-72
2022/05/26 06:04:42;;;;;;;2.47;1.23;;;14.20;99.90;;;;;;5049997;28;20710;-72
2022/05/26 06:07:12;;;;;;;4.13;1.42;;;14.20;99.90;;;;;;5050615;28;20203;-72
2022/05/26 06:09:41;;;;;;;6.43;2.03;;;14.20;99.90;;;;;;5049901;28;20256;-72
2022/05/26 06:12:09;;;;;;;2.53;1.45;;;14.30;99.90;;;;;;5050597;28;20252;-72
2022/05/26 06:14:36;;;;;;;4.75;1.20;;;14.40;99.90;;;;;;5050607;28;20211;-72
2022/05/26 06:17:03;;;;;;;2.47;1.20;;;14.40;99.90;;;;;;5050739;28;20202;-72
2022/05/26 06:19:30;;;;;;;5.72;1.33;;;14.40;99.90;;;;;;5067702;28;20264;-72
2022/05/26 06:21:57;;;;;;;4.15;2.17;;;14.40;99.90;;;;;;5070939;28;20268;-73
2022/05/26 06:24:25;;;;;;;6.72;2.20;;;14.50;99.90;;;;;;5070879;28;20229;-73
2022/05/26 06:26:53;;;;;;;4.57;1.20;;;14.60;99.90;;;;;;5070123;28;20210;-71
2022/05/26 06:37:38;;;;;;;4.40;1.13;;;15.30;99.90;;;;;;5070183;28;20209;-71
2022/05/26 06:40:07;;;;;;;5.47;1.17;;;15.70;99.90;;;;;;5070305;28;20580;-72
2022/05/26 06:42:35;;;;;;;4.28;1.48;;;16.20;99.90;;;;;;5069996;28;20199;-71
2022/05/26 06:45:02;;;;;;;3.65;1.33;;;16.50;99.90;;;;;;5070155;28;20640;-69
2022/05/26 06:47:30;;;;;;;5.45;1.23;;;16.80;99.90;;;;;;5070351;28;20724;-69
2022/05/26 06:49:57;;;;;;;4.60;1.45;;;16.80;99.90;;;;;;5070458;28;20260;-69
2022/05/26 06:52:25;;;;;;;2.30;1.23;;;16.70;99.90;;;;;;5070544;28;20727;-69
2022/05/26 06:54:53;;;;;;;3.03;1.17;;;16.50;99.90;;;;;;5069970;28;20739;-71
2022/05/26 06:57:20;;;;;;;3.47;1.45;;;16.40;99.90;;;;;;5058209;28;20260;-69
2022/05/26 06:59:49;;;;;;;8.68;1.77;;;16.30;99.90;;;;;;5049878;28;20671;-71
2022/05/26 07:02:16;;;;;;;2.72;1.45;;;16.30;99.90;;;;;;5057744;28;20263;-69
2022/05/26 07:04:44;;;;;;;5.32;1.10;;;16.20;99.90;;;;;;5069644;28;20270;-69
2022/05/26 07:07:13;;;;;;;3.28;1.55;;;16.10;99.90;;;;;;5068383;28;20260;-69
2022/05/26 07:09:40;;;;;;;5.95;1.65;;;16.30;99.90;;;;;;5049935;28;20268;-70
2022/05/26 07:12:08;;;;;;;5.57;1.55;;;16.40;99.90;;;;;;5050150;28;20252;-69
2022/05/26 07:14:35;;;;;;;6.70;1.27;;;16.40;99.90;;;;;;5049760;28;20628;-71
2022/05/26 07:17:04;;;;;;;2.28;1.08;;;16.50;99.90;;;;;;5049651;28;20207;-69
2022/05/26 07:19:34;;;;;;;3.30;1.20;;;16.50;99.90;;;;;;5049956;28;20249;-69
2022/05/26 07:22:01;;;;;;;3.53;0.82;;;16.30;99.90;;;;;;5051252;28;20209;-70
2022/05/26 07:24:28;;;;;;;6.10;1.33;;;16.50;99.90;;;;;;5054001;28;20230;-70
2022/05/26 07:26:55;;;;;;;6.22;1.63;;;16.50;99.90;;;;;;5053698;28;20558;-69
2022/05/26 07:29:22;;;;;;;2.53;1.50;;;16.50;99.90;;;;;;5053499;28;20613;-70
2022/05/26 07:31:49;;;;;;;2.50;1.75;;;16.60;99.90;;;;;;5052889;28;20613;-69
2022/05/26 07:34:18;;;;;;;5.05;0.88;;;16.60;99.90;;;;;;5053371;28;20256;-69
2022/05/26 07:42:19;;;;;;;4.80;1.00;;;17.10;99.90;;;;;;5073419;28;20225;-69
2022/05/26 07:44:51;;;;;;;2.53;1.70;;;17.40;99.90;;;;;;5072788;28;20237;-69
2022/05/26 07:47:18;;;;;;;3.17;1.17;;;17.40;99.90;;;;;;5072917;28;20259;-69
2022/05/26 07:49:48;;;;;;;3.03;1.08;;;17.00;99.90;;;;;;5072753;28;20670;-70
2022/05/26 07:52:15;;;;;;;5.55;1.27;;;16.60;99.90;;;;;;5072868;28;20281;-69
2022/05/26 07:54:43;;;;;;;3.65;1.25;;;16.30;99.90;;;;;;5072690;28;20198;-70
2022/05/26 07:57:16;;;;;;;3.67;1.02;;;16.20;99.90;;;;;;5073035;28;20202;-71
2022/05/26 07:59:43;;;;;;;4.28;2.08;;;16.60;99.90;;;;;;5072319;28;20242;-70
2022/05/26 08:02:10;;;;;;;6.63;1.38;;;17.30;99.90;;;;;;5072730;28;20248;-70
2022/05/26 08:04:37;;;;;;;3.50;0.98;;;17.60;99.90;;;;;;5072184;28;20729;-70
2022/05/26 08:07:06;;;;;;;4.05;1.15;;;17.90;99.90;;;;;;5072840;28;20206;-69
2022/05/26 08:09:33;;;;;;;1.83;1.08;;;17.80;99.90;;;;;;5070367;28;20289;-69
2022/05/26 08:12:00;;;;;;;1.55;0.80;;;17.90;99.90;;;;;;5060864;28;20249;-71
2022/05/26 08:14:27;;;;;;;4.10;1.10;;;18.00;99.90;;;;;;5073014;28;20564;-70
2022/05/26 08:16:54;;;;;;;2.78;1.05;;;17.90;99.90;;;;;;5055821;28;20202;-70
2022/05/26 08:19:21;;;;;;;1.90;0.63;;;17.80;99.90;;;;;;5052227;28;20199;-70
2022/05/26 08:21:50;;;;;;;3.10;1.13;;;17.60;99.90;;;;;;5054385;28;20233;-69
2022/05/26 08:24:19;;;;;;;2.30;0.90;;;17.40;99.90;;;;;;5065921;28;20262;-68
2022/05/26 08:26:46;;;;;;;2.38;1.15;;;17.30;99.90;;;;;;5051854;28;20683;-69
2022/05/26 08:29:14;;;;;;;3.42;1.05;;;17.30;99.90;;;;;;5068601;28;20678;-70
2022/05/26 08:31:41;;;;;;;1.83;1.00;;;17.10;99.90;;;;;;5071472;28;20626;-68
2022/05/26 08:34:08;;;;;;;2.72;1.17;;;17.10;99.90;;;;;;5071211;28;20202;-69
2022/05/26 08:36:36;;;;;;;4.78;2.35;;;17.10;99.90;;;;;;5064524;28;20241;-69
2022/05/26 08:39:04;;;;;;;2.33;0.98;;;17.20;99.90;;;;;;5068179;28;20203;-69
2022/05/26 08:41:38;;;;;;;5.32;1.23;;;17.40;99.90;;;;;;5071516;28;20202;-68
2022/05/26 08:44:10;;;;;;;3.83;1.20;;;17.30;99.90;;;;;;5068611;28;20226;-70
2022/05/26 08:46:43;;;;;;;1.10;0.88;;;17.20;99.90;;;;;;5071573;28;20194;-71
2022/05/26 08:49:23;;;;;;;5.40;1.15;;;17.20;99.90;;;;;;5071343;28;20210;-70
2022/05/26 08:51:52;;;;;;;1.55;1.17;;;17.20;99.90;;;;;;5071101;28;20751;-70
2022/05/26 08:54:27;;;;;;;2.40;1.10;;;17.20;99.90;;;;;;5071387;28;20214;-70
2022/05/26 08:56:59;;;;;;;3.47;1.10;;;17.40;99.90;;;;;;5071347;28;20204;-69
2022/05/26 08:59:33;;;;;;;4.50;1.10;;;17.50;99.90;;;;;;5071454;28;20214;-70
2022/05/26 09:02:02;;;;;;;3.28;0.98;;;17.40;99.90;;;;;;5062718;28;20217;-70
2022/05/26 09:04:29;;;;;;;1.90;1.00;;;17.40;99.90;;;;;;5071195;28;20306;-70
2022/05/26 09:15:19;;;;;;;1.38;0.77;;;17.20;99.90;;;;;;5070955;28;20267;-69
2022/05/26 09:17:46;;;;;;;4.20;1.38;;;17.20;99.90;;;;;;5057725;28;20256;-69
2022/05/26 09:20:35;;;;;;;4.10;1.33;;;17.20;99.90;;;;;;5051234;28;20203;-69
2022/05/26 09:23:12;;;;;;;4.55;1.10;;;17.10;99.90;;;;;;5051282;28;20207;-70
2022/05/26 09:25:46;;;;;;;2.63;0.80;;;17.10;99.90;;;;;;5050533;28;20230;-70
2022/05/26 09:28:27;;;;;;;4.40;1.10;;;16.90;99.90;;;;;;5051068;28;20195;-70
2022/05/26 09:30:54;;;;;;;2.03;1.08;;;16.90;99.90;;;;;;5051495;28;20221;-69
2022/05/26 09:33:29;;;;;;;3.53;1.23;;;16.80;99.90;;;;;;5064701;28;20211;-70
2022/05/26 09:36:15;;;;;;;6.13;1.23;;;17.00;99.90;;;;;;5071535;28;20607;-70
2022/05/26 09:38:44;;;;;;;3.30;1.05;;;17.10;99.90;;;;;;5069862;28;20213;-70
2022/05/26 09:41:16;;;;;;;5.40;1.30;;;17.10;99.90;;;;;;5070863;28;20202;-70
2022/05/26 09:43:50;;;;;;;2.80;1.13;;;17.10;99.90;;;;;;5070103;28;20213;-70
2022/05/26 09:46:18;;;;;;;1.27;0.93;;;17.20;99.90;;;;;;5070442;28;20623;-70
2022/05/26 09:48:51;;;;;;;7.38;1.88;;;17.40;99.90;;;;;;5070757;28;20214;-71
2022/05/26 09:51:24;;;;;;;5.15;1.33;;;17.30;99.90;;;;;;5070659;28;20253;-70
2022/05/26 09:53:53;;;;;;;4.28;1.67;;;17.20;99.90;;;;;;5070624;28;20210;-71
2022/05/26 09:56:33;;;;;;;2.15;1.10;;;17.20;99.90;;;;;;5059162;28;20237;-71
2022/05/26 09:59:28;;;;;;;2.25;1.27;;;17.40;99.90;;;;;;5059363;28;20209;-71
2022/05/26 10:02:01;;;;;;;4.95;1.20;;;17.50;99.90;;;;;;5070835;28;20210;-69
2022/05/26 10:04:44;;;;;;;3.00;0.90;;;17.50;99.90;;;;;;5070738;28;20230;-70
2022/05/26 10:07:19;;;;;;;3.67;1.52;;;17.50;99.90;;;;;;5070744;28;20202;-70
2022/05/26 10:09:54;;;;;;;3.42;0.95;;;17.40;99.90;;;;;;5069522;28;20683;-70
2022/05/26 10:12:31;;;;;;;9.35;1.30;;;17.40;99.90;;;;;;5070659;28;20260;-70
2022/05/26 10:15:10;;;;;;;2.58;1.20;;;17.50;99.90;;;;;;5069984;28;20259;-70
2022/05/26 10:17:48;;;;;;;2.65;0.85;;;17.30;99.90;;;;;;5070448;28;20267;-71
2022/05/26 10:20:34;;;;;;;6.93;1.60;;;17.30;99.90;;;;;;5070733;28;20244;-70
2022/05/26 10:23:14;;;;;;;2.78;1.17;;;17.20;99.90;;;;;;5070632;28;20240;-70
2022/05/26 10:25:49;;;;;;;2.03;0.75;;;17.00;99.90;;;;;;5069988;28;20355;-70
2022/05/26 10:28:38;;;;;;;1.75;1.10;;;16.80;99.90;;;;;;5070465;28;20666;-70
2022/05/26 10:31:15;;;;;;;2.58;0.95;;;16.80;99.90;;;;;;5070383;28;20237;-71
2022/05/26 10:33:57;;;;;;;4.30;1.05;;;16.90;99.90;;;;;;5070192;28;20202;-70
2022/05/26 10:36:30;;;;;;;0.90;0.90;;;17.30;99.90;;;;;;5070880;28;20214;-71
2022/05/26 10:39:19;;;;;;;3.17;1.13;;;17.70;99.90;;;;;;5070754;28;20197;-70
2022/05/26 10:41:51;;;;;;;2.45;1.05;;;18.30;99.90;;;;;;5070052;28;20267;-71
2022/05/26 10:44:24;;;;;;;4.35;1.02;;;18.80;99.90;;;;;;5070431;28;20222;-69
2022/05/26 10:47:00;;;;;;;1.73;0.70;;;19.00;99.90;;;;;;5070116;28;20553;-70
2022/05/26 10:49:37;;;;;;;3.42;0.88;;;19.10;99.90;;;;;;5070740;28;20205;-70
2022/05/26 10:52:11;;;;;;;2.20;1.27;;;19.50;99.90;;;;;;5070226;28;20665;-71
2022/05/26 10:54:50;;;;;;;1.45;0.90;;;20.60;99.90;;;;;;5069928;28;20240;-71
2022/05/26 10:57:22;;;;;;;2.45;0.85;;;21.30;99.90;;;;;;5073472;28;20202;-70
2022/05/26 10:59:59;;;;;;;0.98;0.80;;;20.80;99.90;;;;;;5073699;28;20267;-70
2022/05/26 11:02:33;;;;;;;1.50;0.98;;;20.30;99.90;;;;;;5074236;28;20616;-70
2022/05/26 11:05:05;;;;;;;2.33;1.05;;;19.80;99.90;;;;;;5073981;28;20226;-70
2022/05/26 11:07:35;;;;;;;0.98;0.98;;;19.40;99.90;;;;;;5073678;28;20206;-71
2022/05/26 11:10:07;;;;;;;1.33;1.23;;;19.10;99.90;;;;;;5073557;28;20612;-70
2022/05/26 11:12:38;;;;;;;1.67;0.68;;;19.10;99.90;;;;;;5073216;28;20723;-70
2022/05/26 11:18:00;;;;;;;1.27;0.85;;;19.00;99.90;;;;;;5073720;28;20688;-70
2022/05/26 11:20:30;;;;;;;1.33;0.93;;;19.30;99.90;;;;;;5073916;28;20693;-70
2022/05/26 11:23:03;;;;;;;5.80;1.45;;;19.30;99.90;;;;;;5074286;28;20198;-70
2022/05/26 11:25:33;;;;;;;3.67;0.65;;;19.30;99.90;;;;;;5073441;28;20230;-70
2022/05/26 11:28:05;;;;;;;0.43;0.43;;;19.20;99.90;;;;;;5073586;28;20202;-71
2022/05/26 11:36:34;;;;;;;0.85;0.60;;;19.50;99.90;;;;;;5073330;28;20197;-70
2022/05/26 11:39:07;;;;;;;0.88;0.80;;;19.40;99.90;;;;;;5073151;28;20620;-70
2022/05/26 11:41:37;;;;;;;1.75;1.10;;;19.30;99.90;;;;;;5072991;28;20198;-71
2022/05/26 11:44:06;;;;;;;2.08;0.80;;;19.30;99.90;;;;;;5073224;28;20218;-70
2022/05/26 11:46:55;;;;;;;2.05;1.20;;;18.90;99.90;;;;;;5072919;28;20291;-71
2022/05/26 11:50:02;;;;;;;2.47;1.45;;;18.80;99.90;;;;;;5073226;28;20213;-71
2022/05/26 11:53:05;;;;;;;0.88;0.65;;;18.90;99.90;;;;;;5072959;28;20222;-70
2022/05/26 11:55:34;;;;;;;1.77;0.80;;;19.10;99.90;;;;;;5072925;28;20221;-71
2022/05/26 11:58:19;;;;;;;2.88;0.68;;;19.30;99.90;;;;;;5072958;28;20290;-71
2022/05/26 12:00:48;;;;;;;1.10;0.65;;;19.00;99.90;;;;;;5072561;28;20198;-70
2022/05/26 12:03:30;;;;;;;1.60;0.60;;;19.10;99.90;;;;;;5072965;28;20209;-71
2022/05/26 12:06:11;;;;;;;2.40;1.17;;;19.30;99.90;;;;;;5073180;28;20234;-70
2022/05/26 12:08:58;;;;;;;0.57;0.45;;;19.30;99.90;;;;;;5071472;28;20198;-70
2022/05/26 12:11:55;;;;;;;1.10;0.50;;;19.40;99.90;;;;;;5070267;28;20206;-69
2022/05/26 12:14:23;;;;;;;0.82;0.60;;;19.70;99.90;;;;;;5072811;28;20244;-70
2022/05/26 12:16:50;;;;;;;1.00;0.68;;;20.00;99.90;;;;;;5071895;28;20632;-70
2022/05/26 12:19:40;;;;;;;2.20;0.88;;;20.00;99.90;;;;;;5072852;28;20202;-70
2022/05/26 12:22:23;;;;;;;3.45;0.90;;;20.20;99.90;;;;;;5072238;28;20260;-71
2022/05/26 12:25:09;;;;;;;0.82;0.82;;;20.50;99.90;;;;;;5072117;28;20208;-71
2022/05/26 12:28:06;;;;;;;2.20;0.60;;;20.60;99.90;;;;;;5071898;28;20259;-70
2022/05/26 12:31:11;;;;;;;1.38;0.55;;;20.70;99.90;;;;;;5071938;28;20245;-71
2022/05/26 12:34:14;;;;;;;0.90;0.90;;;20.70;99.90;;;;;;5071964;28;20202;-70
2022/05/26 12:36:56;;;;;;;1.20;0.60;;;20.60;99.90;;;;;;5068260;28;20561;-70
2022/05/26 12:39:48;;;;;;;1.65;0.80;;;20.30;99.90;;;;;;5050984;28;20286;-70
2022/05/26 12:42:26;;;;;;;2.20;0.90;;;20.00;99.90;;;;;;5051306;28;20215;-70
2022/05/26 12:45:08;;;;;;;1.70;0.73;;;19.90;99.90;;;;;;5051376;28;20206;-70
2022/05/26 12:47:58;;;;;;;0.82;0.68;;;20.00;99.90;;;;;;5051795;28;20238;-70
2022/05/26 12:50:26;;;;;;;1.35;0.80;;;19.90;99.90;;;;;;5052147;28;20677;-70
2022/05/26 12:53:06;;;;;;;1.83;1.00;;;19.80;99.90;;;;;;5051989;28;20252;-70
2022/05/26 12:55:41;;;;;;;1.30;0.90;;;19.60;99.90;;;;;;5051599;28;20674;-70
2022/05/26 12:58:12;;;;;;;2.13;0.73;;;19.40;99.90;;;;;;5051864;28;20244;-70
2022/05/26 13:00:42;;;;;;;2.15;0.70;;;19.20;99.90;;;;;;5051444;28;20670;-69
2022/05/26 13:03:22;;;;;;;1.70;0.52;;;19.00;99.90;;;;;;5051942;28;20631;-70
2022/05/26 13:05:58;;;;;;;1.30;0.75;;;18.80;99.90;;;;;;5051144;28;20292;-70
2022/05/26 13:08:27;;;;;;;1.20;1.10;;;18.70;99.90;;;;;;5057227;28;20558;-70
2022/05/26 13:10:57;;;;;;;1.10;1.00;;;18.60;99.90;;;;;;5059698;28;20213;-69
2022/05/26 13:13:34;;;;;;;1.70;0.47;;;18.50;99.90;;;;;;5071747;28;20206;-70
2022/05/26 13:16:21;;;;;;;3.88;1.42;;;18.60;99.90;;;;;;5070629;28;20210;-70
2022/05/26 13:18:48;;;;;;;3.47;0.80;;;18.60;99.90;;;;;;5071148;28;20591;-70
2022/05/26 13:21:16;;;;;;;1.33;1.02;;;18.70;99.90;;;;;;5071194;28;20225;-70
2022/05/26 13:23:43;;;;;;;1.88;1.20;;;18.70;99.90;;;;;;5070866;28;20209;-70
2022/05/26 13:26:13;;;;;;;0.93;0.60;;;18.90;99.90;;;;;;5071465;28;20237;-70
2022/05/26 13:28:42;;;;;;;4.43;1.55;;;19.20;99.90;;;;;;5070926;28;20206;-70
2022/05/26 13:33:57;;;;;;;3.00;0.98;;;19.70;99.90;;;;;;5040678;28;20204;-70
2022/05/26 13:36:31;;;;;;;0.80;0.77;;;19.70;99.90;;;;;;5071433;28;20248;-70
2022/05/26 13:39:04;;;;;;;0.98;0.85;;;19.40;99.90;;;;;;5070844;28;20202;-70
2022/05/26 13:41:33;;;;;;;1.55;0.70;;;19.10;99.90;;;;;;5070803;28;20202;-70
2022/05/26 13:44:04;;;;;;;0.85;0.80;;;18.90;99.90;;;;;;5071022;28;20206;-70
2022/05/26 13:46:34;;;;;;;1.00;0.88;;;19.00;99.90;;;;;;5070715;28;20284;-70
2022/05/26 13:49:03;;;;;;;0.80;0.68;;;19.00;99.90;;;;;;5070667;28;20210;-70
2022/05/26 13:51:39;;;;;;;1.25;0.80;;;19.10;99.90;;;;;;5070911;28;20244;-69
2022/05/26 13:54:24;;;;;;;1.63;0.82;;;19.20;99.90;;;;;;5070940;28;20202;-70